Nuevo Baztan, Spain
Current Conditions -  °F | °C
As of 4:00 PM on Tuesday 21 Oct 2014 (Local Time) from LETO Reporting Station
Clear Clear  
Wind Chill: 82°   Ceiling: Unl
Heat Index: 82°   Visibility: 6mi
Dew Point: 52°   Wind: 2mph
Humidity: 35%   Direction: NA
Pressure: 30.33"   Gusts: NA
Location:  40.37°N, 3.24°W
Report Text: LETO 211400Z VRB02KT CAVOK 28/11 Q1027 NOSIG
Loading
Personal Weather Stations






























Interactive Weather Map New forecast layout! Learn more

10-Day Weather Forecast

Advertisements
Track Severe Weather on mobile